Time;durP1;ratioP1;P1;durP2;ratioP2;P2;SDS_P1;SDS_P2;PMS_P1;PMS_P2;Temp;Humidity;BMP_temperature;BMP_pressure;BME280_temperature;BME280_humidity;BME280_pressure;Samples;Min_cycle;Max_cycle;Signal;HPM_P1;HPM_P2
2022/01/24 00:00:51;;;;;;;22.97;9.00;;;6.20;97.30;;;;;;5092275;28;20452;-87
2022/01/24 00:03:16;;;;;;;28.80;9.73;;;6.20;97.30;;;;;;5092140;28;20188;-88
2022/01/24 00:05:42;;;;;;;31.03;10.27;;;6.20;97.30;;;;;;5074248;28;20182;-87
2022/01/24 00:08:07;;;;;;;34.00;10.63;;;6.20;97.30;;;;;;5092115;28;20174;-87
2022/01/24 00:10:36;;;;;;;27.90;10.27;;;6.20;97.30;;;;;;5074045;28;20194;-87
2022/01/24 00:15:54;;;;;;;26.17;8.77;;;6.20;97.30;;;;;;5092464;28;20459;-88
2022/01/24 00:26:45;;;;;;;29.80;10.10;;;6.20;97.30;;;;;;5091825;28;20407;-87
2022/01/24 00:29:11;;;;;;;25.10;10.43;;;6.20;97.30;;;;;;5074182;28;20466;-87
2022/01/24 00:31:37;;;;;;;21.83;7.73;;;6.20;97.30;;;;;;5074064;28;20902;-87
2022/01/24 00:34:03;;;;;;;29.20;8.80;;;6.20;97.30;;;;;;5091804;28;20798;-87
2022/01/24 00:36:29;;;;;;;21.80;7.80;;;6.20;97.30;;;;;;5073932;28;20165;-87
2022/01/24 00:38:55;;;;;;;29.20;9.27;;;6.20;97.30;;;;;;5073847;28;20456;-87
2022/01/24 00:41:21;;;;;;;25.77;9.10;;;6.20;97.30;;;;;;5092088;28;20234;-87
2022/01/24 00:44:16;;;;;;;25.47;8.50;;;6.20;97.30;;;;;;5077502;28;20182;-87
2022/01/24 00:46:46;;;;;;;27.27;9.00;;;6.20;97.30;;;;;;5096574;28;20759;-88
2022/01/24 00:54:47;;;;;;;28.07;7.80;;;6.20;97.30;;;;;;5095469;28;20513;-88
2022/01/24 00:57:13;;;;;;;28.00;9.60;;;6.20;97.30;;;;;;5077538;28;20469;-88
2022/01/24 00:59:39;;;;;;;23.80;9.80;;;6.20;97.30;;;;;;5076933;28;20425;-87
2022/01/24 01:02:06;;;;;;;33.40;10.53;;;6.20;97.30;;;;;;5077259;28;20400;-87
2022/01/24 01:04:44;;;;;;;27.40;10.80;;;6.20;97.30;;;;;;5077249;28;20174;-88
2022/01/24 01:07:10;;;;;;;38.63;10.87;;;6.20;97.30;;;;;;5077321;28;20795;-87
2022/01/24 01:20:50;;;;;;;41.90;11.03;;;6.20;97.30;;;;;;5094988;28;20422;-88
2022/01/24 01:23:15;;;;;;;45.67;11.10;;;6.20;97.30;;;;;;5076977;28;20495;-88
2022/01/24 01:25:42;;;;;;;48.17;12.83;;;6.20;97.30;;;;;;5076707;28;20503;-88
2022/01/24 01:28:08;;;;;;;51.77;13.80;;;6.20;97.30;;;;;;5076878;28;20166;-87
2022/01/24 01:30:42;;;;;;;45.73;12.90;;;6.20;97.30;;;;;;5094722;28;20451;-88
2022/01/24 01:35:56;;;;;;;44.93;11.60;;;6.20;97.30;;;;;;5094900;28;20516;-88
2022/01/24 01:57:02;;;;;;;36.53;9.97;;;6.20;97.30;;;;;;5094395;28;20400;-88
2022/01/24 01:59:28;;;;;;;38.87;12.30;;;6.20;97.30;;;;;;5076109;28;20429;-88
2022/01/24 02:01:54;;;;;;;32.77;9.33;;;6.20;97.30;;;;;;5076583;28;20438;-88
2022/01/24 02:04:19;;;;;;;35.70;10.17;;;6.20;97.30;;;;;;5076139;28;20412;-87
2022/01/24 02:06:45;;;;;;;40.70;10.90;;;6.20;97.30;;;;;;5094353;28;20419;-88
2022/01/24 02:09:13;;;;;;;35.70;11.27;;;6.20;97.30;;;;;;5075583;28;20201;-88
2022/01/24 02:11:38;;;;;;;33.70;9.20;;;6.20;97.30;;;;;;5076079;28;20255;-88
2022/01/24 02:14:09;;;;;;;35.00;10.90;;;6.20;97.30;;;;;;5075842;28;20494;-87
2022/01/24 02:16:48;;;;;;;34.43;10.67;;;6.20;97.30;;;;;;5075805;28;20267;-87
2022/01/24 02:24:32;;;;;;;47.63;11.73;;;6.20;97.30;;;;;;5094115;28;20529;-87
2022/01/24 02:26:59;;;;;;;39.33;10.20;;;6.20;97.30;;;;;;5075697;28;20424;-87
2022/01/24 02:31:56;;;;;;;47.80;11.90;;;6.20;97.30;;;;;;5093847;28;20399;-87
2022/01/24 02:34:33;;;;;;;46.13;12.43;;;6.20;97.30;;;;;;5075465;28;20449;-87
2022/01/24 02:37:03;;;;;;;56.83;13.20;;;6.30;97.30;;;;;;5075450;28;20408;-87
2022/01/24 02:39:45;;;;;;;40.03;10.47;;;6.20;97.30;;;;;;5092872;28;20801;-88
2022/01/24 02:52:59;;;;;;;57.33;13.30;;;6.20;97.30;;;;;;5093522;28;20451;-87
2022/01/24 02:55:24;;;;;;;61.43;16.23;;;6.20;97.30;;;;;;5074946;28;20448;-88
2022/01/24 02:57:50;;;;;;;53.90;13.40;;;6.20;97.30;;;;;;5075001;28;20166;-87
2022/01/24 03:00:15;;;;;;;60.73;15.20;;;6.10;97.30;;;;;;5074912;28;20222;-87
2022/01/24 03:02:41;;;;;;;68.03;14.43;;;6.10;97.30;;;;;;5074986;28;20171;-87
2022/01/24 03:05:07;;;;;;;61.77;14.47;;;6.10;97.30;;;;;;5074432;28;20186;-85
2022/01/24 03:07:33;;;;;;;56.63;13.27;;;6.10;97.30;;;;;;5074989;28;20174;-87
2022/01/24 03:10:01;;;;;;;61.93;15.00;;;6.10;97.30;;;;;;5074747;28;20664;-87
2022/01/24 03:12:44;;;;;;;48.97;13.77;;;6.10;97.30;;;;;;5074580;28;20424;-87
2022/01/24 03:15:11;;;;;;;67.87;16.60;;;6.10;97.30;;;;;;5074518;28;20541;-87
2022/01/24 03:17:37;;;;;;;59.07;16.03;;;6.10;97.30;;;;;;5074670;28;20415;-88
2022/01/24 03:20:03;;;;;;;54.93;14.60;;;6.10;97.30;;;;;;5074358;28;20437;-87
2022/01/24 03:22:28;;;;;;;56.47;15.67;;;6.10;97.30;;;;;;5074975;28;20655;-87
2022/01/24 03:24:54;;;;;;;56.53;14.07;;;6.10;97.30;;;;;;5074593;28;20416;-87
2022/01/24 03:27:19;;;;;;;58.47;14.77;;;6.10;97.30;;;;;;5074018;28;20167;-88
2022/01/24 03:29:45;;;;;;;56.30;16.60;;;6.10;97.30;;;;;;5092351;28;20897;-87
2022/01/24 03:32:10;;;;;;;55.20;16.30;;;6.10;97.30;;;;;;5092376;28;20546;-88
2022/01/24 03:34:36;;;;;;;44.60;13.90;;;6.10;97.30;;;;;;5073823;28;20194;-87
2022/01/24 03:37:01;;;;;;;55.23;13.77;;;6.10;97.30;;;;;;5074207;28;20187;-87
2022/01/24 03:39:27;;;;;;;52.93;14.23;;;6.10;97.30;;;;;;5074018;28;20222;-87
2022/01/24 03:41:52;;;;;;;65.60;15.10;;;6.10;97.30;;;;;;5092489;28;20185;-87
2022/01/24 03:44:19;;;;;;;51.63;14.37;;;6.10;97.30;;;;;;5074385;28;20239;-87
2022/01/24 03:49:49;;;;;;;55.87;14.90;;;6.10;97.30;;;;;;5092185;28;20516;-87
2022/01/24 03:52:15;;;;;;;52.50;15.43;;;6.10;97.30;;;;;;5091875;28;20427;-87
2022/01/24 03:54:43;;;;;;;57.73;14.67;;;6.10;97.30;;;;;;5074095;28;20456;-87
2022/01/24 03:57:10;;;;;;;55.87;15.67;;;6.10;97.30;;;;;;5074003;28;20778;-87
2022/01/24 03:59:36;;;;;;;49.93;14.40;;;6.10;97.30;;;;;;5074111;28;20511;-87
2022/01/24 04:02:02;;;;;;;57.27;14.57;;;6.10;97.30;;;;;;5074141;28;20409;-87
2022/01/24 04:04:28;;;;;;;59.67;15.03;;;6.10;97.30;;;;;;5074199;28;20511;-87
2022/01/24 04:06:54;;;;;;;61.57;16.00;;;6.10;97.30;;;;;;5074399;28;20444;-87
2022/01/24 04:09:20;;;;;;;66.20;14.97;;;6.10;97.30;;;;;;5074086;28;20194;-87
2022/01/24 04:11:50;;;;;;;61.63;15.40;;;6.10;97.30;;;;;;5073727;28;20420;-87
2022/01/24 04:14:36;;;;;;;59.20;14.30;;;6.10;97.30;;;;;;5092104;28;20229;-87
2022/01/24 04:22:36;;;;;;;65.53;18.07;;;6.10;97.30;;;;;;5096327;28;20387;-87
2022/01/24 04:25:04;;;;;;;62.57;14.90;;;6.10;97.30;;;;;;5077599;28;20412;-87
2022/01/24 04:27:31;;;;;;;63.67;18.77;;;6.10;97.30;;;;;;5095849;28;20872;-87
2022/01/24 04:29:57;;;;;;;60.63;16.23;;;6.10;97.30;;;;;;5077544;28;20443;-87
2022/01/24 04:32:22;;;;;;;67.93;16.27;;;6.10;97.30;;;;;;5095626;28;20451;-87
2022/01/24 04:34:48;;;;;;;50.03;14.77;;;6.10;97.30;;;;;;5077411;28;20487;-87
2022/01/24 04:37:14;;;;;;;58.83;14.93;;;6.10;97.30;;;;;;5077887;28;20175;-88
2022/01/24 04:39:42;;;;;;;59.23;15.50;;;6.10;97.30;;;;;;5079910;28;20521;-87
2022/01/24 04:42:13;;;;;;;57.10;15.57;;;6.10;97.30;;;;;;5077653;28;20412;-88
2022/01/24 04:44:52;;;;;;;61.43;17.10;;;6.10;97.30;;;;;;5077480;28;20427;-87
2022/01/24 04:52:38;;;;;;;57.67;15.70;;;6.10;97.30;;;;;;5096194;28;20223;-87
2022/01/24 04:55:04;;;;;;;57.30;15.73;;;6.10;97.30;;;;;;5077118;28;20491;-87
2022/01/24 04:57:30;;;;;;;51.57;14.40;;;6.10;97.30;;;;;;5077025;28;20407;-87
2022/01/24 04:59:57;;;;;;;57.63;14.87;;;6.10;97.30;;;;;;5077198;28;20432;-87
2022/01/24 05:02:24;;;;;;;51.40;15.10;;;6.10;97.30;;;;;;5077266;28;20171;-87
2022/01/24 05:04:52;;;;;;;57.53;16.20;;;6.10;97.30;;;;;;5077046;28;20409;-87
2022/01/24 05:07:17;;;;;;;51.07;15.47;;;6.10;97.30;;;;;;5073690;28;20439;-87
2022/01/24 05:09:51;;;;;;;44.03;15.30;;;6.10;97.30;;;;;;5071266;28;20432;-86
2022/01/24 05:23:28;;;;;;;59.70;16.47;;;6.10;97.30;;;;;;5095107;28;20396;-85
2022/01/24 05:25:54;;;;;;;59.03;15.90;;;6.10;97.30;;;;;;5094498;28;20405;-87
2022/01/24 05:28:20;;;;;;;45.57;15.50;;;6.00;97.30;;;;;;5076330;28;20495;-87
2022/01/24 05:30:46;;;;;;;52.00;15.93;;;6.10;97.30;;;;;;5075976;28;20987;-87
2022/01/24 05:33:12;;;;;;;57.23;14.87;;;6.10;97.30;;;;;;5076753;28;20409;-87
2022/01/24 05:35:37;;;;;;;55.80;14.73;;;6.00;97.30;;;;;;5076540;28;20229;-86
2022/01/24 05:38:04;;;;;;;62.67;14.53;;;6.00;97.30;;;;;;5076470;28;20593;-87
2022/01/24 05:40:30;;;;;;;45.33;13.77;;;6.00;97.30;;;;;;5075857;28;20295;-87
2022/01/24 05:42:55;;;;;;;73.80;16.83;;;6.00;97.30;;;;;;5076327;28;20424;-88
2022/01/24 05:45:21;;;;;;;45.67;13.90;;;6.00;97.30;;;;;;5076546;28;20400;-87
2022/01/24 05:47:47;;;;;;;53.20;14.20;;;6.00;97.30;;;;;;5076137;28;20174;-87
2022/01/24 05:50:12;;;;;;;49.80;13.53;;;6.00;97.30;;;;;;5075915;28;20295;-87
2022/01/24 05:52:38;;;;;;;54.97;14.07;;;6.00;97.30;;;;;;5094128;28;20249;-88
2022/01/24 05:55:04;;;;;;;52.80;13.63;;;6.00;97.30;;;;;;5076072;28;20221;-88
2022/01/24 05:57:30;;;;;;;49.97;14.30;;;6.00;97.30;;;;;;5075819;28;20166;-87
2022/01/24 05:59:56;;;;;;;62.33;14.83;;;6.00;97.30;;;;;;5075927;28;20432;-87
2022/01/24 06:02:37;;;;;;;63.23;15.20;;;6.00;97.30;;;;;;5075749;28;20669;-87
2022/01/24 06:05:02;;;;;;;52.53;16.23;;;6.00;97.30;;;;;;5075622;28;20185;-87
2022/01/24 06:07:28;;;;;;;57.73;14.20;;;6.00;97.30;;;;;;5075820;28;20408;-87
2022/01/24 06:09:53;;;;;;;50.77;14.07;;;6.00;97.30;;;;;;5075630;28;20214;-87
2022/01/24 06:12:19;;;;;;;48.60;12.70;;;6.00;97.30;;;;;;5093881;28;20540;-87
2022/01/24 06:14:44;;;;;;;55.90;13.60;;;6.00;97.30;;;;;;5078512;28;20273;-87
2022/01/24 06:17:10;;;;;;;46.17;13.80;;;6.00;97.30;;;;;;5078160;28;20531;-87
2022/01/24 06:19:36;;;;;;;46.10;12.93;;;6.00;97.30;;;;;;5075586;28;20737;-87
2022/01/24 06:22:02;;;;;;;41.23;14.47;;;6.00;97.30;;;;;;5075547;28;20433;-88
2022/01/24 06:24:27;;;;;;;48.07;12.17;;;6.00;97.30;;;;;;5075779;28;20217;-87
2022/01/24 06:26:53;;;;;;;54.93;13.03;;;6.00;97.30;;;;;;5075380;28;21056;-87
2022/01/24 06:29:18;;;;;;;36.90;10.93;;;6.00;97.30;;;;;;5075469;28;20229;-87
2022/01/24 06:31:44;;;;;;;47.93;12.87;;;6.00;97.30;;;;;;5075560;28;20190;-86
2022/01/24 06:34:10;;;;;;;51.87;14.57;;;6.00;97.30;;;;;;5089133;28;20290;-87
2022/01/24 06:36:36;;;;;;;38.00;11.67;;;6.00;97.30;;;;;;5055097;28;21158;-87
2022/01/24 06:39:03;;;;;;;43.33;11.97;;;6.00;97.30;;;;;;5059088;28;20290;-87
2022/01/24 06:41:33;;;;;;;49.13;12.20;;;6.00;97.30;;;;;;5075096;28;20932;-88
2022/01/24 06:43:59;;;;;;;54.13;14.17;;;6.00;97.30;;;;;;5075152;28;20423;-87
2022/01/24 06:46:24;;;;;;;41.40;11.77;;;6.00;97.30;;;;;;5093348;28;20408;-87
2022/01/24 06:48:50;;;;;;;41.93;12.80;;;6.00;97.30;;;;;;5075087;28;20545;-87
2022/01/24 06:51:18;;;;;;;54.73;12.70;;;6.00;97.30;;;;;;5075362;28;20645;-88
2022/01/24 06:53:43;;;;;;;55.93;13.07;;;6.00;97.30;;;;;;5093430;28;20174;-87
2022/01/24 06:56:09;;;;;;;42.30;11.93;;;6.00;97.30;;;;;;5093366;28;20419;-87
2022/01/24 06:58:36;;;;;;;34.73;10.90;;;6.00;97.30;;;;;;5079604;28;20205;-87
2022/01/24 07:01:03;;;;;;;51.53;13.50;;;6.00;97.30;;;;;;5076683;28;20433;-87
2022/01/24 07:03:28;;;;;;;43.50;11.90;;;6.00;97.30;;;;;;5092830;28;20419;-87
2022/01/24 07:05:54;;;;;;;42.30;11.60;;;6.00;97.30;;;;;;5074658;28;20413;-88
2022/01/24 07:08:20;;;;;;;57.40;12.40;;;6.00;97.30;;;;;;5093062;28;20627;-87
2022/01/24 07:10:46;;;;;;;44.53;12.63;;;6.00;97.30;;;;;;5075141;28;20206;-86
2022/01/24 07:13:12;;;;;;;59.13;12.63;;;6.00;97.30;;;;;;5075929;28;20186;-87
2022/01/24 07:15:46;;;;;;;49.13;11.70;;;6.00;97.30;;;;;;5082008;28;20223;-88
2022/01/24 07:20:38;;;;;;;43.97;12.00;;;6.00;97.30;;;;;;5092828;28;20428;-87
2022/01/24 07:23:03;;;;;;;47.37;15.83;;;6.00;97.30;;;;;;5074272;28;20204;-87
2022/01/24 07:25:29;;;;;;;55.30;12.30;;;6.00;97.30;;;;;;5074313;28;20570;-87
2022/01/24 07:27:54;;;;;;;45.07;11.97;;;6.00;97.30;;;;;;5074671;28;20178;-87
2022/01/24 07:30:20;;;;;;;66.17;14.53;;;6.10;97.30;;;;;;5074842;28;20202;-87
2022/01/24 07:32:45;;;;;;;50.53;13.03;;;6.10;97.30;;;;;;5074017;28;20533;-87
2022/01/24 07:35:11;;;;;;;48.20;12.80;;;6.10;97.30;;;;;;5092432;28;20203;-87
2022/01/24 07:37:37;;;;;;;45.20;13.30;;;6.10;97.30;;;;;;5074400;28;20558;-87
2022/01/24 07:40:06;;;;;;;44.17;11.90;;;6.10;97.30;;;;;;5061521;28;20372;-87
2022/01/24 07:45:16;;;;;;;45.67;12.80;;;6.10;97.30;;;;;;5072509;28;20915;-87
2022/01/24 07:47:42;;;;;;;45.80;11.87;;;6.10;97.30;;;;;;5054297;28;20413;-87
2022/01/24 07:50:08;;;;;;;58.20;12.03;;;6.10;97.30;;;;;;5072078;28;20206;-87
2022/01/24 07:52:34;;;;;;;44.60;11.90;;;6.10;97.30;;;;;;5071319;28;20245;-88
2022/01/24 07:55:00;;;;;;;50.30;13.37;;;6.10;97.30;;;;;;5053647;28;21035;-87
2022/01/24 07:57:25;;;;;;;41.07;11.40;;;6.10;97.30;;;;;;5053769;28;20409;-87
2022/01/24 07:59:51;;;;;;;36.03;10.57;;;6.20;97.30;;;;;;5053819;28;20294;-87
2022/01/24 08:02:16;;;;;;;52.73;13.00;;;6.20;97.30;;;;;;5071867;28;20298;-87
2022/01/24 08:04:42;;;;;;;43.27;13.07;;;6.20;97.30;;;;;;5054004;28;20185;-87
2022/01/24 08:07:07;;;;;;;47.47;11.73;;;6.20;97.30;;;;;;5053975;28;20198;-87
2022/01/24 08:09:33;;;;;;;43.47;12.10;;;6.20;97.30;;;;;;5053958;28;20237;-88
2022/01/24 08:11:58;;;;;;;41.60;12.27;;;6.20;97.30;;;;;;5054177;28;20171;-88
2022/01/24 08:14:24;;;;;;;38.03;9.50;;;6.20;97.30;;;;;;5053742;28;20202;-88
2022/01/24 08:16:49;;;;;;;42.10;10.53;;;6.20;97.30;;;;;;5054162;28;20258;-88
2022/01/24 08:19:15;;;;;;;39.80;12.70;;;6.20;97.30;;;;;;5053718;28;20271;-87
2022/01/24 08:21:40;;;;;;;45.43;12.00;;;6.20;97.30;;;;;;5071760;28;20211;-87
2022/01/24 08:24:07;;;;;;;50.07;11.57;;;6.20;97.30;;;;;;5071722;28;20611;-87
2022/01/24 08:26:33;;;;;;;45.70;12.17;;;6.30;97.30;;;;;;5053665;28;20179;-87
2022/01/24 08:28:58;;;;;;;40.70;12.03;;;6.30;97.30;;;;;;5053450;28;20414;-87
2022/01/24 08:31:24;;;;;;;38.83;11.53;;;6.30;97.30;;;;;;5071699;28;20179;-87
2022/01/24 08:33:49;;;;;;;38.83;10.50;;;6.40;97.30;;;;;;5053708;28;20183;-87
2022/01/24 08:36:15;;;;;;;47.30;11.93;;;6.40;97.30;;;;;;5053926;28;20255;-87
2022/01/24 08:38:41;;;;;;;41.97;11.50;;;6.40;97.30;;;;;;5053484;28;20198;-87
2022/01/24 08:41:14;;;;;;;41.80;12.07;;;6.40;97.30;;;;;;5053354;28;20240;-85
2022/01/24 08:46:15;;;;;;;52.43;13.53;;;6.40;97.30;;;;;;5071905;28;20404;-87
2022/01/24 08:48:42;;;;;;;46.37;12.10;;;6.50;97.30;;;;;;5053499;28;20416;-87
2022/01/24 08:51:08;;;;;;;37.30;11.80;;;6.50;97.30;;;;;;5053261;28;20495;-87
2022/01/24 08:53:35;;;;;;;42.60;12.37;;;6.50;97.30;;;;;;5053302;28;20413;-87
2022/01/24 08:56:03;;;;;;;45.30;13.07;;;6.50;97.30;;;;;;5053540;28;20501;-87
2022/01/24 08:58:29;;;;;;;44.30;11.77;;;6.50;97.30;;;;;;5053491;28;20421;-87
2022/01/24 09:00:55;;;;;;;52.40;11.03;;;6.50;97.30;;;;;;5053511;28;20426;-87
2022/01/24 09:03:21;;;;;;;47.00;12.00;;;6.50;97.30;;;;;;5053773;28;20409;-85
2022/01/24 09:05:48;;;;;;;30.17;9.50;;;6.60;97.30;;;;;;5056949;28;20174;-87
2022/01/24 09:08:14;;;;;;;36.30;10.57;;;6.60;97.30;;;;;;5057174;28;20413;-87
2022/01/24 09:10:40;;;;;;;34.37;9.73;;;6.60;97.30;;;;;;5057190;28;20483;-87
2022/01/24 09:13:07;;;;;;;36.63;10.30;;;6.60;97.30;;;;;;5056955;28;21159;-86
2022/01/24 09:15:33;;;;;;;33.80;11.30;;;6.70;97.30;;;;;;5056730;28;20476;-87
2022/01/24 09:17:58;;;;;;;34.00;9.60;;;6.70;97.30;;;;;;5056961;28;20902;-87
2022/01/24 09:20:24;;;;;;;35.80;10.60;;;6.70;97.30;;;;;;5074642;28;20661;-87
2022/01/24 09:22:50;;;;;;;36.73;9.90;;;6.70;97.30;;;;;;5056540;28;20178;-87
2022/01/24 09:25:17;;;;;;;33.03;10.33;;;6.80;97.30;;;;;;5056306;28;20175;-86
2022/01/24 09:27:45;;;;;;;36.97;10.70;;;6.80;97.30;;;;;;5056940;28;20182;-87
2022/01/24 09:30:13;;;;;;;34.63;10.20;;;6.80;97.30;;;;;;5056281;28;20449;-87
2022/01/24 09:32:38;;;;;;;29.13;9.60;;;6.90;97.30;;;;;;5056432;28;21001;-87
2022/01/24 09:35:07;;;;;;;41.20;10.63;;;6.90;97.30;;;;;;5056349;28;20548;-87
2022/01/24 09:37:33;;;;;;;32.97;12.13;;;6.90;97.30;;;;;;5074315;28;20174;-87
2022/01/24 09:39:58;;;;;;;36.67;11.03;;;6.90;97.30;;;;;;5067828;28;20472;-87
2022/01/24 09:42:25;;;;;;;38.37;11.10;;;6.90;97.30;;;;;;5076346;28;20166;-87
2022/01/24 09:44:50;;;;;;;38.07;11.67;;;7.00;97.30;;;;;;5076189;28;20178;-88
2022/01/24 09:47:17;;;;;;;29.53;9.30;;;7.00;97.30;;;;;;5076157;28;20412;-87
2022/01/24 09:49:46;;;;;;;30.20;9.73;;;7.00;97.30;;;;;;5076259;28;20699;-87
2022/01/24 09:52:12;;;;;;;30.50;9.63;;;7.00;97.30;;;;;;5076255;28;20416;-87
2022/01/24 09:54:37;;;;;;;35.80;9.93;;;7.00;97.30;;;;;;5076173;28;20487;-87
2022/01/24 09:57:03;;;;;;;35.77;10.73;;;7.00;97.30;;;;;;5076457;28;20186;-87
2022/01/24 09:59:29;;;;;;;32.40;9.03;;;7.10;97.30;;;;;;5076332;28;20224;-87
2022/01/24 10:01:55;;;;;;;30.00;10.60;;;7.10;97.30;;;;;;5076086;28;20174;-88
2022/01/24 10:04:21;;;;;;;32.50;9.60;;;7.10;97.30;;;;;;5075991;28;20792;-87
2022/01/24 10:07:11;;;;;;;29.80;9.53;;;7.10;97.30;;;;;;5076352;28;20171;-87
2022/01/24 10:09:48;;;;;;;32.37;9.43;;;7.10;97.30;;;;;;5075847;28;20585;-87
2022/01/24 10:17:43;;;;;;;26.30;9.30;;;7.10;97.30;;;;;;5094259;28;20392;-87
2022/01/24 10:20:16;;;;;;;32.33;11.60;;;7.10;97.30;;;;;;5075486;28;20977;-87
2022/01/24 10:22:42;;;;;;;29.03;9.50;;;7.10;97.30;;;;;;5075739;28;20419;-88
2022/01/24 10:25:10;;;;;;;35.83;13.23;;;7.20;97.30;;;;;;5075769;28;20421;-85
2022/01/24 10:27:36;;;;;;;35.20;10.53;;;7.20;97.30;;;;;;5075794;28;20178;-87
2022/01/24 10:30:10;;;;;;;27.20;8.63;;;7.20;97.30;;;;;;5093623;28;20432;-88
2022/01/24 10:32:41;;;;;;;30.97;8.30;;;7.20;97.30;;;;;;5075722;28;20166;-87
2022/01/24 10:35:24;;;;;;;29.93;8.23;;;7.20;97.30;;;;;;5075883;28;20555;-87
2022/01/24 10:38:13;;;;;;;34.23;8.90;;;7.30;97.30;;;;;;5075978;28;20405;-87
2022/01/24 10:41:06;;;;;;;29.00;8.77;;;7.30;97.30;;;;;;5076473;28;20997;-87
2022/01/24 10:43:33;;;;;;;22.10;8.77;;;7.20;97.30;;;;;;5079993;28;20389;-87
2022/01/24 10:46:00;;;;;;;25.47;8.10;;;7.20;97.30;;;;;;5057266;28;20784;-87
2022/01/24 10:48:31;;;;;;;23.20;8.87;;;7.10;97.30;;;;;;5056262;28;20488;-87
2022/01/24 10:51:04;;;;;;;31.03;8.03;;;7.10;97.30;;;;;;5056911;28;20498;-88
2022/01/24 10:53:39;;;;;;;24.07;7.87;;;7.10;97.30;;;;;;5055678;28;20512;-87
2022/01/24 10:56:25;;;;;;;29.80;8.50;;;7.10;97.30;;;;;;5055176;28;20428;-87
2022/01/24 10:58:50;;;;;;;21.97;5.97;;;7.00;97.30;;;;;;5055355;28;20417;-87
2022/01/24 11:01:21;;;;;;;18.50;7.67;;;7.00;97.30;;;;;;5055441;28;20424;-87
2022/01/24 11:04:07;;;;;;;21.53;7.70;;;7.00;97.30;;;;;;5055926;28;20167;-87
2022/01/24 11:06:38;;;;;;;17.10;6.33;;;7.00;97.30;;;;;;5074071;28;20767;-87
2022/01/24 11:09:34;;;;;;;22.37;6.37;;;6.90;97.30;;;;;;5055870;28;21078;-86
2022/01/24 11:12:07;;;;;;;17.73;5.23;;;6.90;97.30;;;;;;5052945;28;20414;-86
2022/01/24 11:14:33;;;;;;;12.83;4.60;;;6.90;97.30;;;;;;5072833;28;20449;-86
2022/01/24 11:17:00;;;;;;;12.40;3.87;;;6.80;97.30;;;;;;5054813;28;20474;-87
2022/01/24 11:19:31;;;;;;;14.83;5.43;;;6.80;97.30;;;;;;5054659;28;20437;-86
2022/01/24 11:22:00;;;;;;;15.20;5.60;;;6.80;97.30;;;;;;5054721;28;20431;-86
2022/01/24 11:24:51;;;;;;;14.53;5.73;;;6.80;97.30;;;;;;5054681;28;20428;-87
2022/01/24 11:27:17;;;;;;;14.00;4.90;;;6.80;97.30;;;;;;5060341;28;20425;-87
2022/01/24 11:29:44;;;;;;;14.33;3.90;;;6.80;97.30;;;;;;5072408;28;20421;-86
2022/01/24 11:32:27;;;;;;;9.00;3.90;;;6.80;97.30;;;;;;5054615;28;20183;-87
2022/01/24 11:34:54;;;;;;;9.70;3.63;;;6.70;97.30;;;;;;5054410;28;20453;-86
2022/01/24 11:37:40;;;;;;;8.90;3.60;;;6.70;97.30;;;;;;5054413;28;20423;-87
2022/01/24 11:40:20;;;;;;;7.37;3.20;;;6.70;97.30;;;;;;5071749;28;20471;-86
2022/01/24 11:42:47;;;;;;;7.27;2.07;;;6.70;97.30;;;;;;5054408;28;21142;-87
2022/01/24 11:45:17;;;;;;;6.00;2.33;;;6.70;97.30;;;;;;5054153;28;20406;-87
2022/01/24 11:47:45;;;;;;;4.03;1.83;;;6.70;97.30;;;;;;5054268;28;20410;-87
2022/01/24 11:50:36;;;;;;;3.20;1.90;;;6.70;97.30;;;;;;5054182;28;20436;-87
2022/01/24 11:53:19;;;;;;;3.37;2.13;;;6.70;97.30;;;;;;5054454;28;21101;-86
2022/01/24 11:55:45;;;;;;;5.07;1.77;;;6.70;97.30;;;;;;5054329;28;20441;-85
2022/01/24 11:58:10;;;;;;;3.43;1.80;;;6.80;97.30;;;;;;5054504;28;20459;-87
2022/01/24 12:00:44;;;;;;;5.27;1.80;;;6.80;97.30;;;;;;5054041;28;20205;-87
2022/01/24 12:03:27;;;;;;;3.80;1.40;;;6.70;97.30;;;;;;5053865;28;20168;-87
2022/01/24 12:05:56;;;;;;;3.20;1.50;;;6.70;97.30;;;;;;5054438;28;20417;-87
2022/01/24 12:08:30;;;;;;;4.90;1.53;;;6.70;97.30;;;;;;5054331;28;20432;-87
2022/01/24 12:11:09;;;;;;;1.73;1.20;;;6.80;97.30;;;;;;5054426;28;20800;-87
2022/01/24 12:13:43;;;;;;;2.40;1.63;;;6.80;97.30;;;;;;5054367;28;20410;-86
2022/01/24 12:16:11;;;;;;;1.73;1.30;;;6.80;97.30;;;;;;5053831;28;20429;-87
2022/01/24 12:18:36;;;;;;;2.40;1.33;;;6.80;97.30;;;;;;5054101;28;20410;-87
2022/01/24 12:21:03;;;;;;;4.13;1.67;;;6.80;97.30;;;;;;5071393;28;20425;-86
2022/01/24 12:23:38;;;;;;;5.63;1.60;;;6.80;97.30;;;;;;5053621;28;20171;-86
2022/01/24 12:26:08;;;;;;;3.20;1.80;;;6.90;97.30;;;;;;5054021;28;20610;-86
2022/01/24 12:28:45;;;;;;;3.27;1.33;;;6.80;97.30;;;;;;5071835;28;20479;-87
2022/01/24 12:31:21;;;;;;;3.00;1.40;;;6.80;97.30;;;;;;5054461;28;20436;-86
2022/01/24 12:34:08;;;;;;;3.37;1.27;;;6.80;97.30;;;;;;5053366;28;20417;-87
2022/01/24 12:36:36;;;;;;;6.73;1.73;;;6.80;97.30;;;;;;5053730;28;20412;-87
2022/01/24 12:39:12;;;;;;;2.30;1.23;;;6.90;97.30;;;;;;5059102;28;20456;-87
2022/01/24 12:41:43;;;;;;;2.37;1.20;;;6.80;97.30;;;;;;5077062;28;20545;-86
2022/01/24 12:46:52;;;;;;;6.90;1.40;;;6.80;97.30;;;;;;5095427;28;20392;-87
2022/01/24 12:49:18;;;;;;;2.80;1.70;;;6.80;97.30;;;;;;5076944;28;20949;-86
2022/01/24 12:51:45;;;;;;;1.73;1.40;;;6.80;97.30;;;;;;5077123;28;20185;-87
2022/01/24 12:54:11;;;;;;;2.10;1.37;;;6.80;97.30;;;;;;5077186;28;20206;-87
2022/01/24 12:56:36;;;;;;;2.97;1.80;;;6.80;97.30;;;;;;5077161;28;20409;-87
2022/01/24 12:59:02;;;;;;;4.30;1.60;;;6.90;97.30;;;;;;5077084;28;20270;-86
2022/01/24 13:01:30;;;;;;;3.10;1.63;;;6.80;97.30;;;;;;5077298;28;20210;-87
2022/01/24 13:03:58;;;;;;;2.53;1.53;;;6.80;97.30;;;;;;5077374;28;20225;-86
2022/01/24 13:06:31;;;;;;;1.70;1.17;;;6.80;97.30;;;;;;5077295;28;20417;-87
2022/01/24 13:08:56;;;;;;;1.93;1.17;;;6.80;97.30;;;;;;5076841;28;20412;-86
2022/01/24 13:11:22;;;;;;;12.80;2.50;;;6.80;97.30;;;;;;5076699;28;20514;-87
2022/01/24 13:14:05;;;;;;;3.13;1.60;;;6.80;97.30;;;;;;5076721;28;20589;-86
2022/01/24 13:22:43;;;;;;;1.80;1.33;;;6.80;97.30;;;;;;5095385;28;20466;-86
2022/01/24 13:25:15;;;;;;;3.40;2.20;;;6.80;97.30;;;;;;5076661;28;20424;-86
2022/01/24 13:27:48;;;;;;;3.10;1.50;;;6.80;97.30;;;;;;5076612;28;20419;-86
2022/01/24 13:30:23;;;;;;;2.50;1.60;;;6.80;97.30;;;;;;5094370;28;20443;-86
2022/01/24 13:32:53;;;;;;;2.77;1.43;;;6.70;97.30;;;;;;5076674;28;20781;-87
2022/01/24 13:35:30;;;;;;;2.80;1.83;;;6.80;97.30;;;;;;5091972;28;20455;-87
2022/01/24 13:38:03;;;;;;;3.20;1.70;;;6.80;97.30;;;;;;5074557;28;20389;-87
2022/01/24 13:41:08;;;;;;;5.40;1.80;;;6.80;97.30;;;;;;5040214;28;20528;-87
2022/01/24 13:43:38;;;;;;;11.10;2.70;;;6.80;97.30;;;;;;5054384;28;20410;-87
2022/01/24 13:46:16;;;;;;;4.47;2.30;;;6.80;97.30;;;;;;5036312;28;20446;-86
2022/01/24 13:48:48;;;;;;;2.77;1.90;;;6.80;97.30;;;;;;5036481;28;20418;-86
2022/01/24 13:51:22;;;;;;;5.27;2.57;;;6.70;97.30;;;;;;5052901;28;20435;-86
2022/01/24 13:53:54;;;;;;;8.97;2.73;;;6.70;97.30;;;;;;5036114;28;20414;-87
2022/01/24 13:56:26;;;;;;;3.47;2.03;;;6.70;97.30;;;;;;5036281;28;20924;-86
2022/01/24 13:59:00;;;;;;;6.57;2.47;;;6.70;97.30;;;;;;5054184;28;20406;-87
2022/01/24 14:01:26;;;;;;;3.37;2.17;;;6.70;97.30;;;;;;5053896;28;20414;-87
2022/01/24 14:03:56;;;;;;;4.50;2.50;;;6.80;97.30;;;;;;5053402;28;20414;-87
2022/01/24 14:06:22;;;;;;;5.93;2.77;;;6.80;97.30;;;;;;5036069;28;20415;-87
2022/01/24 14:09:09;;;;;;;4.20;2.23;;;6.80;97.30;;;;;;5036277;28;20932;-86
2022/01/24 14:11:43;;;;;;;6.37;3.60;;;6.80;97.30;;;;;;5053810;28;20163;-86
2022/01/24 14:14:13;;;;;;;3.27;2.20;;;6.80;97.30;;;;;;5035997;28;20479;-87
2022/01/24 14:16:54;;;;;;;2.00;1.60;;;6.80;97.30;;;;;;5035565;28;20433;-87
2022/01/24 14:19:34;;;;;;;5.17;2.43;;;6.80;97.30;;;;;;5035908;28;20438;-87
2022/01/24 14:22:02;;;;;;;9.63;4.20;;;6.80;97.30;;;;;;5035517;28;20417;-87
2022/01/24 14:24:55;;;;;;;8.67;4.30;;;6.80;97.30;;;;;;5035417;28;20448;-87
2022/01/24 14:27:37;;;;;;;5.97;3.00;;;6.80;97.30;;;;;;5035408;28;21035;-87
2022/01/24 14:30:07;;;;;;;4.70;2.50;;;6.80;97.30;;;;;;5035622;28;20442;-87
2022/01/24 14:32:35;;;;;;;3.47;2.00;;;6.80;97.30;;;;;;5035487;28;20418;-87
2022/01/24 14:35:08;;;;;;;6.27;4.20;;;6.80;97.30;;;;;;5035786;28;20800;-87
2022/01/24 14:37:55;;;;;;;7.57;3.57;;;6.80;97.30;;;;;;5035252;28;20406;-87
2022/01/24 14:40:36;;;;;;;10.63;4.80;;;6.80;97.30;;;;;;5046348;28;20468;-87
2022/01/24 14:45:47;;;;;;;12.50;8.23;;;6.80;97.30;;;;;;5073781;28;20479;-87
2022/01/24 14:48:12;;;;;;;5.87;3.90;;;6.80;97.30;;;;;;5055124;28;20437;-87
2022/01/24 14:50:38;;;;;;;8.20;4.80;;;6.70;97.30;;;;;;5054855;28;20375;-87